Strona główna
METAR-TAF:

METAR-TAF

Lotnisko :

Port lotniczy São Pedro

São Vicente, Republika Zielonego Przylądka

Szerokość geograficzna: 16-49-59N, Długość geograficzna: 25-03-25W, wysokość: 20 m

Aktualna obserwacja pogody

Raport powstał 25 minut temu, godzina 05:00 UTC
Wiatr 15 kt od wschodnio-północny wschód
Temperatura 26°C
Wilgotność 70%
Ciśnienie 1013 hPa
Widzialność 10 km lub więcej
Mało chmury na wysokości 2200 ft
Przerywane chmury na wysokości 10000 ft

METAR: GVSV 220500Z 06015KT 9999 FEW022 BKN100 26/20 Q1013 NOSIG

czas: 04:25 (05:25 UTC)

Prognoza

Raport powstał 6 godziny i 25 minut temu, godzina 23:00 UTC
Prognoza ważna od 22 godzina 00 UTC do 23 godzina 06 UTC
Wiatr 15 kt od wschodnio-północny wschód
Widzialność 10 km lub więcej
Rozproszone chmury na wysokości 2200 ft

TAF: GVSV 212300Z 2200/2306 07015KT 9999 SCT022

Obserwacja i prognoza pogody dla ponad 4000 lotnisk (raport METAR i TAF).

Dostępne stacje oznaczono żółtymi i czerwonymi punktami na mapie.

Najedź kursorem aby zobaczyć nazwę stacji.

Kliknij aby zobaczyć obserwacje i prognozy pogody.

Aby zmienić mapę: kliknij na zielony przycisk z czarnym krzyżykiem, aby powiększyć; na zielony przycisk z myślnikiem, aby pomniejszyć; na zielone strzałki, aby przejść do map sąsiednich.


METAR-TAF: